Terminal Aerodrome Forecast
Issued by NWS Blacksburg, VA

Current Version | Previous Version | Text Only | Print | Product List | Glossary Off
Versions: 1 2 3 4 5 6 7 8 9 10 11 12 13 14 15 16 17 18 19 20 21 22 23 24 25 26 27 28 29 30 31 32 33 34 35 36 37 38 39 40

336
FTUS41 KRNK 211140
TAFBLF
TAF
KBLF 211140Z 2112/2212 25004KT P6SM SCT025 BKN200
      TEMPO 2112/2116 BKN025
     FM211600 23005KT P6SM BKN050
     FM212000 19005KT P6SM VCSH BKN050 OVC060
     FM220400 00000KT P6SM OVC050
     FM220600 VRB03KT P6SM OVC025
     FM221000 13004KT 3SM -SHRA SCT008 OVC015=

USA.gov is the U.S. government's official web portal to all federal, state and local government web resources and services.